ΕΜΥ, Εθνική Μετεωρολογική Υπηρεσία - Δελτία Καιρού, Προγνώσεις

ΑΕΡΟΝΑΥΤΙΛΙΑ

GREEK AIRPORTS CODES

LGAV 151650Z 02014KT 9999 FEW025 SCT040 07/M00 Q1014 NOSIG=

EUROPEAN AIRPORTS CODES

LFPO 151630Z 01010KT 330V060 9999 BKN029 02/M04 Q1029 NOSIG=